createdAt,value
2018-12-03T00:01:33.612Z,5.90
2018-12-03T00:04:08.226Z,6.00
2018-12-03T00:06:36.656Z,6.00
2018-12-03T00:09:08.674Z,6.00
2018-12-03T00:11:37.572Z,6.00
2018-12-03T00:14:06.089Z,6.00
2018-12-03T00:16:34.536Z,6.20
2018-12-03T00:19:03.329Z,6.40
2018-12-03T00:21:31.777Z,6.70
2018-12-03T00:24:00.217Z,7.00
2018-12-03T00:26:28.696Z,7.20
2018-12-03T00:28:57.210Z,7.30
2018-12-03T00:31:25.659Z,7.40
2018-12-03T00:33:54.140Z,7.50
2018-12-03T00:36:22.597Z,7.50
2018-12-03T00:38:51.021Z,7.50
2018-12-03T00:41:19.447Z,7.60
2018-12-03T00:43:47.899Z,7.50
2018-12-03T00:46:16.313Z,7.50
2018-12-03T00:48:44.749Z,7.60
2018-12-03T00:51:13.167Z,7.60
2018-12-03T00:53:41.843Z,7.60
2018-12-03T00:56:10.288Z,7.60
2018-12-03T00:58:38.675Z,7.60
2018-12-03T01:01:07.217Z,7.60
2018-12-03T01:03:35.630Z,7.50
2018-12-03T01:06:04.137Z,7.60
2018-12-03T01:08:32.543Z,7.60
2018-12-03T01:11:00.972Z,7.60
2018-12-03T01:13:29.387Z,7.50
2018-12-03T01:15:57.831Z,7.50
2018-12-03T01:18:26.271Z,7.40
2018-12-03T01:20:54.695Z,7.40
2018-12-03T01:23:23.673Z,7.30
2018-12-03T01:25:52.109Z,7.30
2018-12-03T01:28:20.533Z,7.30
2018-12-03T01:30:48.927Z,7.30
2018-12-03T01:33:17.362Z,7.30
2018-12-03T01:35:45.783Z,7.30
2018-12-03T01:38:14.342Z,7.30
2018-12-03T01:40:42.739Z,7.20
2018-12-03T01:43:11.162Z,7.20
2018-12-03T01:45:39.543Z,7.30
2018-12-03T01:48:07.969Z,7.40
2018-12-03T01:50:36.344Z,7.30
2018-12-03T01:53:04.983Z,7.30
2018-12-03T01:55:33.373Z,7.20
2018-12-03T01:58:01.836Z,7.20
2018-12-03T02:00:30.270Z,7.10
2018-12-03T02:02:58.683Z,7.10
2018-12-03T02:05:27.098Z,7.10
2018-12-03T02:07:55.555Z,7.00
2018-12-03T02:10:23.989Z,6.90
2018-12-03T02:12:52.397Z,6.90
2018-12-03T02:15:20.803Z,6.80
2018-12-03T02:17:49.289Z,6.80
2018-12-03T02:20:18.327Z,6.80
2018-12-03T02:22:46.765Z,6.70
2018-12-03T02:25:15.207Z,6.70
2018-12-03T02:27:43.615Z,6.60
2018-12-03T02:30:14.183Z,6.60
2018-12-03T02:32:42.941Z,6.60
2018-12-03T02:35:12.373Z,6.60
2018-12-03T02:37:40.834Z,6.50
2018-12-03T02:40:10.633Z,6.60
2018-12-03T02:42:39.227Z,6.60
2018-12-03T02:45:10.191Z,6.60
2018-12-03T02:47:38.651Z,6.60
2018-12-03T02:50:11.780Z,6.60
2018-12-03T02:52:40.535Z,6.70
2018-12-03T02:55:11.391Z,6.60
2018-12-03T02:57:39.806Z,6.60
2018-12-03T03:00:13.516Z,6.60
2018-12-03T03:02:42.501Z,6.60
2018-12-03T03:05:12.026Z,6.70
2018-12-03T03:07:40.416Z,6.70
2018-12-03T03:10:12.110Z,6.70
2018-12-03T03:12:40.566Z,6.70
2018-12-03T03:15:10.239Z,6.70
2018-12-03T03:17:39.229Z,6.70
2018-12-03T03:20:09.288Z,6.80
2018-12-03T03:22:37.696Z,6.80
2018-12-03T03:25:07.136Z,6.70
2018-12-03T03:27:35.541Z,6.70
2018-12-03T03:30:05.029Z,6.70
2018-12-03T03:32:34.952Z,6.70
2018-12-03T03:35:01.876Z,6.70
2018-12-03T03:37:30.288Z,6.70
2018-12-03T03:39:58.688Z,6.60
2018-12-03T03:42:27.129Z,6.60
2018-12-03T03:44:56.020Z,6.60
2018-12-03T03:47:24.431Z,6.60
2018-12-03T03:49:52.841Z,6.70
2018-12-03T03:52:21.280Z,6.70
2018-12-03T03:54:49.673Z,6.70
2018-12-03T03:57:18.080Z,6.70
2018-12-03T03:59:46.491Z,6.70
2018-12-03T04:02:14.912Z,6.70
2018-12-03T04:04:43.318Z,6.80
2018-12-03T04:07:11.764Z,6.70
2018-12-03T04:09:40.149Z,6.80
2018-12-03T04:12:08.574Z,6.90
2018-12-03T04:14:36.973Z,6.90
2018-12-03T04:17:05.622Z,7.00
2018-12-03T04:19:34.035Z,7.00
2018-12-03T04:22:02.447Z,7.10
2018-12-03T04:24:30.860Z,7.10
2018-12-03T04:26:59.316Z,7.10
2018-12-03T04:29:27.722Z,7.20
2018-12-03T04:31:56.124Z,7.20
2018-12-03T04:34:24.552Z,7.30
2018-12-03T04:36:52.978Z,7.30
2018-12-03T04:39:21.409Z,7.40
2018-12-03T04:41:49.805Z,7.50
2018-12-03T04:44:18.217Z,7.70
2018-12-03T04:46:46.659Z,7.80
2018-12-03T04:49:15.069Z,8.00
2018-12-03T04:51:43.479Z,8.20
2018-12-03T04:54:11.889Z,8.40
2018-12-03T04:56:40.335Z,8.50
2018-12-03T04:59:08.731Z,8.60
2018-12-03T05:01:37.144Z,8.70
2018-12-03T05:04:05.691Z,8.70
2018-12-03T05:06:34.187Z,8.70
2018-12-03T05:09:02.681Z,8.70
2018-12-03T05:11:31.140Z,8.80
2018-12-03T05:13:59.547Z,8.80
2018-12-03T05:16:27.957Z,8.80
2018-12-03T05:18:56.374Z,8.90
2018-12-03T05:21:24.778Z,8.90
2018-12-03T05:23:53.178Z,9.00
2018-12-03T05:26:21.579Z,9.00
2018-12-03T05:28:50.025Z,9.00
2018-12-03T05:31:18.401Z,9.00
2018-12-03T05:33:46.823Z,9.00
2018-12-03T05:36:15.223Z,9.00
2018-12-03T05:38:43.685Z,9.00
2018-12-03T05:41:12.090Z,9.00
2018-12-03T05:43:40.572Z,9.00
2018-12-03T05:46:08.972Z,9.00
2018-12-03T05:48:37.442Z,9.00
2018-12-03T05:51:06.218Z,9.00
2018-12-03T05:53:34.634Z,8.90
2018-12-03T05:56:03.046Z,8.90
2018-12-03T05:58:31.487Z,8.90
2018-12-03T06:00:59.904Z,8.90
2018-12-03T06:03:28.322Z,8.90
2018-12-03T06:05:56.746Z,8.90
2018-12-03T06:08:25.144Z,8.80
2018-12-03T06:10:53.870Z,8.90
2018-12-03T06:13:22.265Z,8.80
2018-12-03T06:15:50.670Z,8.70
2018-12-03T06:18:19.073Z,8.80
2018-12-03T06:20:47.529Z,8.80
2018-12-03T06:23:15.973Z,8.70
2018-12-03T06:25:44.413Z,8.70
2018-12-03T06:28:12.829Z,8.70
2018-12-03T06:30:41.275Z,8.70
2018-12-03T06:33:09.807Z,8.70
2018-12-03T06:35:38.215Z,8.70
2018-12-03T06:38:06.625Z,8.60
2018-12-03T06:40:35.084Z,8.70
2018-12-03T06:43:03.481Z,8.70
2018-12-03T06:45:31.897Z,8.60
2018-12-03T06:48:08.688Z,8.50
2018-12-03T06:50:37.103Z,8.60
2018-12-03T06:53:05.785Z,8.60
2018-12-03T06:55:34.233Z,8.50
2018-12-03T06:58:02.720Z,8.50
2018-12-03T07:00:31.127Z,8.40
2018-12-03T07:02:59.562Z,8.50
2018-12-03T07:05:27.957Z,8.50
2018-12-03T07:07:58.006Z,8.70
2018-12-03T07:10:26.671Z,8.70
2018-12-03T07:12:57.424Z,8.60
2018-12-03T07:15:25.881Z,8.50
2018-12-03T07:17:57.151Z,8.50
2018-12-03T07:20:25.635Z,8.50
2018-12-03T07:22:54.075Z,8.40
2018-12-03T07:25:22.488Z,8.40
2018-12-03T07:27:51.204Z,8.30
2018-12-03T07:30:22.458Z,8.30
2018-12-03T07:32:51.601Z,8.30
2018-12-03T07:35:20.798Z,8.30
2018-12-03T07:37:50.170Z,8.30
2018-12-03T07:40:18.602Z,8.30
2018-12-03T07:42:46.998Z,8.40
2018-12-03T07:45:16.764Z,8.40
2018-12-03T07:47:45.200Z,8.30
2018-12-03T07:50:14.748Z,8.30
2018-12-03T07:52:43.195Z,8.30
2018-12-03T07:55:12.733Z,8.30
2018-12-03T07:57:42.882Z,8.30
2018-12-03T08:00:14.323Z,8.40
2018-12-03T08:02:42.772Z,8.50
2018-12-03T08:05:11.576Z,8.70
2018-12-03T08:07:40.161Z,8.90
2018-12-03T08:10:12.228Z,9.00
2018-12-03T08:12:40.946Z,9.10
2018-12-03T08:15:14.864Z,9.30
2018-12-03T08:17:44.936Z,9.50
2018-12-03T08:20:23.251Z,9.60
2018-12-03T08:22:54.925Z,9.70
2018-12-03T08:25:24.301Z,9.80
2018-12-03T08:27:53.369Z,9.90
2018-12-03T08:30:21.822Z,9.90
2018-12-03T08:32:50.249Z,10.00
2018-12-03T08:35:18.997Z,10.00
2018-12-03T08:37:47.437Z,10.10
2018-12-03T08:40:18.170Z,10.10
2018-12-03T08:42:49.991Z,10.20
2018-12-03T08:45:18.705Z,10.20
2018-12-03T08:47:47.655Z,10.30
2018-12-03T08:50:30.929Z,10.30
2018-12-03T08:52:59.440Z,10.30
2018-12-03T08:55:27.877Z,10.30
2018-12-03T08:57:56.283Z,10.30
2018-12-03T09:00:26.317Z,10.40
2018-12-03T09:03:07.382Z,10.40
2018-12-03T09:05:39.021Z,10.50
2018-12-03T09:08:08.978Z,10.50
2018-12-03T09:10:37.929Z,10.50
2018-12-03T09:13:13.119Z,10.50
2018-12-03T09:15:41.609Z,10.60
2018-12-03T09:18:10.071Z,10.60
2018-12-03T09:20:38.505Z,10.70
2018-12-03T09:23:07.504Z,10.70
2018-12-03T09:25:35.943Z,10.80
2018-12-03T09:28:04.384Z,10.80
2018-12-03T09:30:32.828Z,10.90
2018-12-03T09:33:01.286Z,11.00
2018-12-03T09:35:29.774Z,11.00
2018-12-03T09:37:58.215Z,11.10
2018-12-03T09:40:28.442Z,11.20
2018-12-03T09:42:56.912Z,11.30
2018-12-03T09:45:25.343Z,11.40
2018-12-03T09:47:54.455Z,11.50
2018-12-03T09:50:24.668Z,11.50
2018-12-03T09:52:53.584Z,11.50
2018-12-03T09:55:24.271Z,11.50
2018-12-03T09:58:15.958Z,11.50
2018-12-03T10:00:44.596Z,11.50
2018-12-03T10:03:17.684Z,11.50
2018-12-03T10:05:49.851Z,11.60
2018-12-03T10:08:20.848Z,11.60
2018-12-03T10:10:52.236Z,11.70
2018-12-03T10:13:20.688Z,11.70
2018-12-03T10:15:49.100Z,11.70
2018-12-03T10:18:17.499Z,11.80
2018-12-03T10:20:49.487Z,11.80
2018-12-03T10:23:17.930Z,11.90
2018-12-03T10:25:47.708Z,12.00
2018-12-03T10:28:16.117Z,12.00
2018-12-03T10:30:44.600Z,12.10
2018-12-03T10:33:19.430Z,12.10
2018-12-03T10:35:48.582Z,12.10
2018-12-03T10:38:22.084Z,12.10
2018-12-03T10:40:53.907Z,12.10
2018-12-03T10:43:22.364Z,12.10
2018-12-03T10:45:50.812Z,12.10
2018-12-03T10:48:19.222Z,12.20
2018-12-03T10:50:47.709Z,12.30
2018-12-03T10:53:16.192Z,12.40
2018-12-03T10:55:44.846Z,12.60
2018-12-03T10:58:14.948Z,12.80
2018-12-03T11:00:48.860Z,12.90
2018-12-03T11:03:22.620Z,13.10
2018-12-03T11:06:26.278Z,13.10
2018-12-03T11:08:54.758Z,13.20
2018-12-03T11:11:23.301Z,13.20
2018-12-03T11:13:51.790Z,13.10
2018-12-03T11:16:22.422Z,13.10
2018-12-03T11:18:52.994Z,13.20
2018-12-03T11:21:21.858Z,13.20
2018-12-03T11:23:49.944Z,13.20
2018-12-03T11:26:18.430Z,13.10
2018-12-03T11:28:51.598Z,13.10
2018-12-03T11:31:24.630Z,13.00
2018-12-03T11:33:53.128Z,12.90
2018-12-03T11:36:58.066Z,13.00
2018-12-03T11:39:31.864Z,12.90
2018-12-03T11:42:03.284Z,12.90
2018-12-03T11:44:31.970Z,13.00
2018-12-03T11:47:00.424Z,12.90
2018-12-03T11:49:28.906Z,13.00
2018-12-03T11:51:57.333Z,13.10
2018-12-03T11:54:26.374Z,13.20
2018-12-03T11:56:54.790Z,13.20
2018-12-03T11:59:23.201Z,13.30
2018-12-03T12:01:51.666Z,13.30
2018-12-03T12:04:20.103Z,13.40
2018-12-03T12:06:48.515Z,13.50
2018-12-03T12:09:21.019Z,13.60
2018-12-03T12:11:45.437Z,13.80
2018-12-03T12:14:30.961Z,14.30
2018-12-03T12:16:59.375Z,14.70
2018-12-03T12:19:27.825Z,15.30
2018-12-03T12:21:56.225Z,15.60
2018-12-03T12:24:24.673Z,15.90
2018-12-03T12:26:54.792Z,16.20
2018-12-03T12:29:23.223Z,16.30
2018-12-03T12:31:51.705Z,16.30
2018-12-03T12:34:20.140Z,16.10
2018-12-03T12:36:48.619Z,15.80
2018-12-03T12:39:17.063Z,15.50
2018-12-03T12:41:45.492Z,15.30
2018-12-03T12:44:14.040Z,15.10
2018-12-03T12:46:45.013Z,15.00
2018-12-03T12:49:13.486Z,15.00
2018-12-03T12:51:41.935Z,14.90
2018-12-03T12:54:10.346Z,14.80
2018-12-03T12:56:38.811Z,14.70
2018-12-03T12:59:07.666Z,14.60
2018-12-03T13:01:36.112Z,14.50
2018-12-03T13:04:05.059Z,14.50
2018-12-03T13:06:33.476Z,14.40
2018-12-03T13:09:01.936Z,14.50
2018-12-03T13:11:30.350Z,14.50
2018-12-03T13:13:58.815Z,14.50
2018-12-03T13:16:27.227Z,14.50
2018-12-03T13:18:55.730Z,14.40
2018-12-03T13:21:24.123Z,14.30
2018-12-03T13:23:52.548Z,14.30
2018-12-03T13:26:21.168Z,14.20
2018-12-03T13:28:49.590Z,14.10
2018-12-03T13:31:18.081Z,14.10
2018-12-03T13:33:46.521Z,14.00
2018-12-03T13:36:14.979Z,14.00
2018-12-03T13:38:43.495Z,14.00
2018-12-03T13:41:11.951Z,13.90
2018-12-03T13:43:40.429Z,13.90
2018-12-03T13:46:08.872Z,13.80
2018-12-03T13:48:37.806Z,13.90
2018-12-03T13:51:06.289Z,13.80
2018-12-03T13:53:34.701Z,13.70
2018-12-03T13:56:03.176Z,13.80
2018-12-03T13:58:31.616Z,13.80
2018-12-03T14:01:00.143Z,13.70
2018-12-03T14:03:31.075Z,13.70
2018-12-03T14:06:24.410Z,13.70
2018-12-03T14:09:39.754Z,13.60
2018-12-03T14:12:48.786Z,13.50
2018-12-03T14:17:35.762Z,13.50
2018-12-03T14:20:04.660Z,13.50
2018-12-03T14:22:56.028Z,13.40
2018-12-03T14:25:24.572Z,13.30
2018-12-03T14:27:52.988Z,13.30
2018-12-03T14:30:21.441Z,13.30
2018-12-03T14:32:49.882Z,13.30
2018-12-03T14:35:18.333Z,13.20
2018-12-03T14:37:46.744Z,13.20
2018-12-03T14:40:15.203Z,13.30
2018-12-03T14:42:43.594Z,13.20
2018-12-03T14:45:12.580Z,13.20
2018-12-03T14:47:41.029Z,13.10
2018-12-03T14:50:10.586Z,13.10
2018-12-03T14:52:38.996Z,13.10
2018-12-03T14:55:07.965Z,13.10
2018-12-03T14:57:36.505Z,13.10
2018-12-03T15:00:07.209Z,13.10
2018-12-03T15:02:35.639Z,13.10
2018-12-03T15:05:04.431Z,13.10
2018-12-03T15:07:32.863Z,13.10
2018-12-03T15:10:01.322Z,13.00
2018-12-03T15:12:29.751Z,12.90
2018-12-03T15:14:58.240Z,12.90
2018-12-03T15:17:26.686Z,12.80
2018-12-03T15:19:55.170Z,12.70
2018-12-03T15:22:23.591Z,12.70
2018-12-03T15:24:52.008Z,12.70
2018-12-03T15:27:20.447Z,12.70
2018-12-03T15:29:48.857Z,12.70
2018-12-03T15:34:56.788Z,12.60
2018-12-03T15:37:25.224Z,12.60
2018-12-03T15:39:53.704Z,12.60
2018-12-03T15:42:22.140Z,12.60
2018-12-03T15:44:50.770Z,12.60
2018-12-03T15:47:19.308Z,12.60
2018-12-03T15:49:47.788Z,12.70
2018-12-03T15:52:16.293Z,12.70
2018-12-03T15:54:44.716Z,12.70
2018-12-03T15:57:13.120Z,12.70
2018-12-03T15:59:41.712Z,12.70
2018-12-03T16:02:10.156Z,12.80
2018-12-03T16:04:38.606Z,12.90
2018-12-03T16:07:07.054Z,12.90
2018-12-03T16:09:35.497Z,13.00
2018-12-03T16:12:04.040Z,13.00
2018-12-03T16:14:32.603Z,13.00
2018-12-03T16:17:01.079Z,13.00
2018-12-03T16:19:29.632Z,13.00
2018-12-03T16:21:58.153Z,13.00
2018-12-03T16:24:26.582Z,13.10
2018-12-03T16:26:55.014Z,13.10
2018-12-03T16:29:23.459Z,13.00
2018-12-03T16:31:51.886Z,13.00
2018-12-03T16:34:20.605Z,13.00
2018-12-03T16:36:49.042Z,12.90
2018-12-03T16:39:17.494Z,12.90
2018-12-03T16:41:45.933Z,12.90
2018-12-03T16:44:14.517Z,12.80
2018-12-03T16:46:43.018Z,12.80
2018-12-03T16:49:11.537Z,12.70
2018-12-03T16:51:39.981Z,12.60
2018-12-03T16:54:08.465Z,12.60
2018-12-03T16:56:36.905Z,12.60
2018-12-03T16:59:05.476Z,12.70
2018-12-03T17:01:34.038Z,12.70
2018-12-03T17:04:02.508Z,12.70
2018-12-03T17:06:31.098Z,12.60
2018-12-03T17:08:59.633Z,12.60
2018-12-03T17:11:28.085Z,12.50
2018-12-03T17:13:56.538Z,12.40
2018-12-03T17:16:25.046Z,12.40
2018-12-03T17:18:53.510Z,12.40
2018-12-03T17:22:30.374Z,12.40
2018-12-03T17:24:58.795Z,12.40
2018-12-03T17:27:27.792Z,12.20
2018-12-03T17:29:56.241Z,12.10
2018-12-03T17:32:24.706Z,12.10
2018-12-03T17:34:53.317Z,12.00
2018-12-03T17:37:21.944Z,12.00
2018-12-03T17:39:50.385Z,11.90
2018-12-03T17:42:18.814Z,11.90
2018-12-03T17:44:47.286Z,11.80
2018-12-03T17:47:15.734Z,11.80
2018-12-03T17:49:44.203Z,11.80
2018-12-03T17:52:12.764Z,11.70
2018-12-03T17:54:41.292Z,11.70
2018-12-03T17:57:09.787Z,11.60
2018-12-03T17:59:38.262Z,11.60
2018-12-03T18:02:06.760Z,11.60
2018-12-03T18:04:35.289Z,11.60
2018-12-03T18:07:03.862Z,11.50
2018-12-03T18:09:32.456Z,11.50
2018-12-03T18:12:00.981Z,11.50
2018-12-03T18:14:30.436Z,11.50
2018-12-03T18:16:59.717Z,11.50
2018-12-03T18:19:28.234Z,11.50
2018-12-03T18:21:56.801Z,11.50
2018-12-03T18:24:25.371Z,11.60
2018-12-03T18:26:53.958Z,11.60
2018-12-03T18:29:22.570Z,11.60
2018-12-03T18:31:51.192Z,11.60
2018-12-03T18:34:19.931Z,11.70
2018-12-03T18:36:49.367Z,11.70
2018-12-03T18:39:17.943Z,11.70
2018-12-03T18:41:46.776Z,11.80
2018-12-03T18:44:16.217Z,11.80
2018-12-03T18:46:45.004Z,11.80
2018-12-03T18:49:19.552Z,11.80
2018-12-03T18:51:48.343Z,11.90
2018-12-03T18:54:19.413Z,11.90
2018-12-03T18:56:48.235Z,11.90
2018-12-03T18:59:17.289Z,11.90
2018-12-03T19:01:46.166Z,12.00
2018-12-03T19:04:15.939Z,12.20
2018-12-03T19:06:46.172Z,12.30
2018-12-03T19:09:15.095Z,12.30
2018-12-03T19:11:43.976Z,12.20
2018-12-03T19:14:12.888Z,12.20
2018-12-03T19:16:41.812Z,12.20
2018-12-03T19:19:11.708Z,12.20
2018-12-03T19:24:14.195Z,12.20
2018-12-03T19:26:43.147Z,12.30
2018-12-03T19:29:12.219Z,12.30
2018-12-03T19:31:42.005Z,12.20
2018-12-03T19:34:10.924Z,12.10
2018-12-03T19:36:39.973Z,12.10
2018-12-03T19:39:09.035Z,12.00
2018-12-03T19:41:38.392Z,11.90
2018-12-03T19:44:08.179Z,11.90
2018-12-03T19:46:37.279Z,11.80
2018-12-03T19:49:07.211Z,11.80
2018-12-03T19:51:36.197Z,11.80
2018-12-03T19:54:05.697Z,11.70
2018-12-03T19:56:36.184Z,11.70
2018-12-03T20:01:38.670Z,11.60
2018-12-03T20:04:14.620Z,11.50
2018-12-03T20:06:43.721Z,11.60
2018-12-03T20:09:14.980Z,11.50
2018-12-03T20:11:44.238Z,11.40
2018-12-03T20:14:13.323Z,11.40
2018-12-03T20:16:43.192Z,11.30
2018-12-03T20:19:13.267Z,11.50
2018-12-03T20:21:45.604Z,11.30
2018-12-03T20:40:04.344Z,11.20
2018-12-03T20:42:37.369Z,11.00
2018-12-03T20:45:18.153Z,10.70
2018-12-03T20:47:51.953Z,10.60
2018-12-03T20:50:30.597Z,10.60
2018-12-03T20:52:59.864Z,10.60
2018-12-03T20:55:36.615Z,10.50
2018-12-03T20:58:05.620Z,10.50
2018-12-03T21:00:35.216Z,10.50
2018-12-03T21:03:04.198Z,10.50
2018-12-03T21:05:33.333Z,10.50
2018-12-03T21:08:02.906Z,10.40
2018-12-03T21:10:33.767Z,10.40
2018-12-03T21:13:02.762Z,10.40
2018-12-03T21:15:32.351Z,10.40
2018-12-03T21:18:02.297Z,10.40
2018-12-03T21:23:05.093Z,10.70
2018-12-03T21:25:34.054Z,11.40
2018-12-03T21:28:02.921Z,11.50
2018-12-03T21:30:31.957Z,11.70
2018-12-03T21:33:01.254Z,11.80
2018-12-03T21:35:30.208Z,11.90
2018-12-03T21:38:00.292Z,11.80
2018-12-03T21:40:30.409Z,11.80
2018-12-03T21:42:59.313Z,11.70
2018-12-03T21:45:28.237Z,11.60
2018-12-03T21:47:57.097Z,11.50
2018-12-03T21:50:26.666Z,11.30
2018-12-03T21:52:55.599Z,11.30
2018-12-03T21:55:24.428Z,11.30
2018-12-03T21:57:55.091Z,11.20
2018-12-03T22:00:24.421Z,11.10
2018-12-03T22:02:53.600Z,11.10
2018-12-03T22:05:22.424Z,11.10
2018-12-03T22:07:51.177Z,11.10
2018-12-03T22:10:19.952Z,11.00
2018-12-03T22:12:48.666Z,11.10
2018-12-03T22:15:17.431Z,11.00
2018-12-03T22:17:46.126Z,11.00
2018-12-03T22:20:14.900Z,11.00
2018-12-03T22:22:43.528Z,11.10
2018-12-03T22:25:12.047Z,11.10
2018-12-03T22:27:40.523Z,11.10
2018-12-03T22:30:10.664Z,11.10
2018-12-03T22:32:39.125Z,11.20
2018-12-03T22:35:08.282Z,11.20
2018-12-03T22:37:36.779Z,11.30
2018-12-03T22:40:06.008Z,11.30
2018-12-03T22:42:34.490Z,11.30
2018-12-03T22:45:02.900Z,11.30
2018-12-03T22:47:31.324Z,11.30
2018-12-03T22:49:59.806Z,11.40
2018-12-03T22:52:28.222Z,11.40
2018-12-03T22:54:56.633Z,11.40
2018-12-03T22:57:25.190Z,11.40
2018-12-03T22:59:53.590Z,11.40
2018-12-03T23:02:21.983Z,11.40
2018-12-03T23:04:50.422Z,11.40
2018-12-03T23:07:18.864Z,11.40
2018-12-03T23:09:47.284Z,11.40
2018-12-03T23:12:15.701Z,11.30
2018-12-03T23:14:44.283Z,11.30
2018-12-03T23:17:13.023Z,11.30
2018-12-03T23:19:41.454Z,11.20
2018-12-03T23:22:09.901Z,11.20
2018-12-03T23:24:38.304Z,11.10
2018-12-03T23:27:06.708Z,11.10
2018-12-03T23:29:35.135Z,11.10
2018-12-03T23:32:03.559Z,11.10
2018-12-03T23:34:32.019Z,11.00
2018-12-03T23:37:00.468Z,11.20
2018-12-03T23:39:28.891Z,11.10
2018-12-03T23:41:57.345Z,11.10
2018-12-03T23:44:25.756Z,10.90
2018-12-03T23:46:54.154Z,10.50
2018-12-03T23:49:22.703Z,10.20
2018-12-03T23:51:51.285Z,9.80
2018-12-03T23:54:19.693Z,9.50
2018-12-03T23:56:48.190Z,9.40
2018-12-03T23:59:16.605Z,9.40
